sensor_id;sensor_type;location;lat;lon;timestamp;pressure;altitude;pressure_sealevel;temperature;humidity
24422;BME280;12600;53.326;-6.298;2022-11-03T00:01:22;99521.69;;;10.44;81.65
24422;BME280;12600;53.326;-6.298;2022-11-03T00:04:14;99533.75;;;10.43;82.05
24422;BME280;12600;53.326;-6.298;2022-11-03T00:07:04;99533.94;;;10.38;82.92
24422;BME280;12600;53.326;-6.298;2022-11-03T00:09:54;99534.63;;;10.35;82.38
24422;BME280;12600;53.326;-6.298;2022-11-03T00:12:43;99536.50;;;10.34;82.27
24422;BME280;12600;53.326;-6.298;2022-11-03T00:15:32;99544.84;;;10.38;82.08
24422;BME280;12600;53.326;-6.298;2022-11-03T00:18:22;99550.84;;;10.31;82.13
24422;BME280;12600;53.326;-6.298;2022-11-03T00:21:13;99541.19;;;10.34;81.73
24422;BME280;12600;53.326;-6.298;2022-11-03T00:24:03;99551.44;;;10.37;81.87
24422;BME280;12600;53.326;-6.298;2022-11-03T00:26:53;99544.13;;;10.29;81.43
24422;BME280;12600;53.326;-6.298;2022-11-03T00:29:42;99554.38;;;10.32;80.98
24422;BME280;12600;53.326;-6.298;2022-11-03T00:32:32;99551.19;;;10.30;80.64
24422;BME280;12600;53.326;-6.298;2022-11-03T00:35:21;99549.94;;;10.27;80.41
24422;BME280;12600;53.326;-6.298;2022-11-03T00:38:13;99543.19;;;10.25;80.24
24422;BME280;12600;53.326;-6.298;2022-11-03T00:41:04;99547.84;;;10.24;80.20
24422;BME280;12600;53.326;-6.298;2022-11-03T00:43:54;99534.41;;;10.19;80.01
24422;BME280;12600;53.326;-6.298;2022-11-03T00:46:44;99554.03;;;10.13;79.34
24422;BME280;12600;53.326;-6.298;2022-11-03T00:49:33;99547.69;;;10.21;79.30
24422;BME280;12600;53.326;-6.298;2022-11-03T00:52:23;99541.44;;;10.20;79.34
24422;BME280;12600;53.326;-6.298;2022-11-03T00:55:14;99538.00;;;10.11;78.92
24422;BME280;12600;53.326;-6.298;2022-11-03T00:58:03;99532.03;;;10.09;79.29
24422;BME280;12600;53.326;-6.298;2022-11-03T01:00:59;99530.25;;;10.13;79.00
24422;BME280;12600;53.326;-6.298;2022-11-03T01:03:51;99530.25;;;10.13;78.77
24422;BME280;12600;53.326;-6.298;2022-11-03T01:06:57;99524.06;;;10.04;78.64
24422;BME280;12600;53.326;-6.298;2022-11-03T01:09:47;99530.91;;;10.10;78.37
24422;BME280;12600;53.326;-6.298;2022-11-03T01:12:38;99523.22;;;10.12;78.25
24422;BME280;12600;53.326;-6.298;2022-11-03T01:15:27;99522.41;;;10.12;77.86
24422;BME280;12600;53.326;-6.298;2022-11-03T01:18:16;99530.13;;;10.09;77.91
24422;BME280;12600;53.326;-6.298;2022-11-03T01:21:06;99521.47;;;10.07;77.66
24422;BME280;12600;53.326;-6.298;2022-11-03T01:23:55;99524.66;;;10.09;77.89
24422;BME280;12600;53.326;-6.298;2022-11-03T01:26:44;99501.75;;;10.02;77.98
24422;BME280;12600;53.326;-6.298;2022-11-03T01:29:35;99494.19;;;10.07;77.27
24422;BME280;12600;53.326;-6.298;2022-11-03T01:32:25;99495.38;;;9.98;77.28
24422;BME280;12600;53.326;-6.298;2022-11-03T01:35:14;99490.72;;;9.98;77.70
24422;BME280;12600;53.326;-6.298;2022-11-03T01:38:04;99502.69;;;9.85;78.29
24422;BME280;12600;53.326;-6.298;2022-11-03T01:40:53;99487.59;;;9.88;77.84
24422;BME280;12600;53.326;-6.298;2022-11-03T01:43:50;99488.97;;;9.94;77.78
24422;BME280;12600;53.326;-6.298;2022-11-03T01:46:45;99485.00;;;9.91;77.38
24422;BME280;12600;53.326;-6.298;2022-11-03T01:49:41;99485.94;;;9.95;77.50
24422;BME280;12600;53.326;-6.298;2022-11-03T01:52:35;99483.94;;;9.84;78.04
24422;BME280;12600;53.326;-6.298;2022-11-03T01:55:29;99479.53;;;9.91;77.74
24422;BME280;12600;53.326;-6.298;2022-11-03T01:58:26;99484.31;;;9.94;77.35
24422;BME280;12600;53.326;-6.298;2022-11-03T02:01:17;99478.88;;;9.94;77.07
24422;BME280;12600;53.326;-6.298;2022-11-03T02:04:12;99483.34;;;9.99;77.21
24422;BME280;12600;53.326;-6.298;2022-11-03T02:07:13;99488.19;;;9.93;76.68
24422;BME280;12600;53.326;-6.298;2022-11-03T02:10:06;99478.88;;;9.94;76.83
24422;BME280;12600;53.326;-6.298;2022-11-03T02:12:56;99485.47;;;9.93;76.87
24422;BME280;12600;53.326;-6.298;2022-11-03T02:15:47;99474.88;;;9.92;76.61
24422;BME280;12600;53.326;-6.298;2022-11-03T02:18:37;99475.91;;;9.87;76.78
24422;BME280;12600;53.326;-6.298;2022-11-03T02:21:34;99460.50;;;9.82;76.88
24422;BME280;12600;53.326;-6.298;2022-11-03T02:24:34;99464.50;;;9.85;76.23
24422;BME280;12600;53.326;-6.298;2022-11-03T02:27:28;99459.31;;;9.92;76.09
24422;BME280;12600;53.326;-6.298;2022-11-03T02:30:17;99447.25;;;9.93;76.06
24422;BME280;12600;53.326;-6.298;2022-11-03T02:33:17;99451.59;;;9.94;76.06
24422;BME280;12600;53.326;-6.298;2022-11-03T02:36:15;99447.59;;;9.92;75.72
24422;BME280;12600;53.326;-6.298;2022-11-03T02:39:10;99454.38;;;9.86;75.78
24422;BME280;12600;53.326;-6.298;2022-11-03T02:42:02;99453.59;;;9.85;75.89
24422;BME280;12600;53.326;-6.298;2022-11-03T02:44:57;99445.13;;;9.78;75.78
24422;BME280;12600;53.326;-6.298;2022-11-03T02:47:48;99449.59;;;9.82;75.64
24422;BME280;12600;53.326;-6.298;2022-11-03T02:50:38;99454.16;;;9.78;75.71
24422;BME280;12600;53.326;-6.298;2022-11-03T02:53:29;99446.00;;;9.70;75.76
24422;BME280;12600;53.326;-6.298;2022-11-03T02:56:21;99453.19;;;9.74;75.56
24422;BME280;12600;53.326;-6.298;2022-11-03T02:59:16;99447.47;;;9.67;75.58
24422;BME280;12600;53.326;-6.298;2022-11-03T03:02:13;99460.13;;;9.72;75.66
24422;BME280;12600;53.326;-6.298;2022-11-03T03:05:08;99458.38;;;9.67;75.57
24422;BME280;12600;53.326;-6.298;2022-11-03T03:08:02;99460.50;;;9.62;75.51
24422;BME280;12600;53.326;-6.298;2022-11-03T03:10:54;99462.44;;;9.61;75.44
24422;BME280;12600;53.326;-6.298;2022-11-03T03:13:45;99448.50;;;9.63;75.11
24422;BME280;12600;53.326;-6.298;2022-11-03T03:16:46;99454.06;;;9.66;74.91
24422;BME280;12600;53.326;-6.298;2022-11-03T03:19:48;99434.19;;;9.66;74.45
24422;BME280;12600;53.326;-6.298;2022-11-03T03:22:42;99447.28;;;9.72;74.87
24422;BME280;12600;53.326;-6.298;2022-11-03T03:25:35;99445.81;;;9.75;74.62
24422;BME280;12600;53.326;-6.298;2022-11-03T03:28:34;99428.78;;;9.78;74.25
24422;BME280;12600;53.326;-6.298;2022-11-03T03:31:26;99427.19;;;9.77;74.02
24422;BME280;12600;53.326;-6.298;2022-11-03T03:34:19;99424.66;;;9.72;73.36
24422;BME280;12600;53.326;-6.298;2022-11-03T03:37:25;99418.81;;;9.82;73.52
24422;BME280;12600;53.326;-6.298;2022-11-03T03:40:21;99409.69;;;9.78;73.17
24422;BME280;12600;53.326;-6.298;2022-11-03T03:43:14;99402.91;;;9.84;73.58
24422;BME280;12600;53.326;-6.298;2022-11-03T03:46:06;99399.38;;;9.84;73.13
24422;BME280;12600;53.326;-6.298;2022-11-03T03:48:58;99399.72;;;9.82;73.53
24422;BME280;12600;53.326;-6.298;2022-11-03T03:51:48;99400.38;;;9.79;73.35
24422;BME280;12600;53.326;-6.298;2022-11-03T03:54:39;99388.94;;;9.65;73.41
24422;BME280;12600;53.326;-6.298;2022-11-03T03:57:30;99400.66;;;9.65;73.85
24422;BME280;12600;53.326;-6.298;2022-11-03T04:00:20;99393.59;;;9.64;73.88
24422;BME280;12600;53.326;-6.298;2022-11-03T04:03:14;99384.75;;;9.67;74.11
24422;BME280;12600;53.326;-6.298;2022-11-03T04:06:06;99378.56;;;9.58;74.13
24422;BME280;12600;53.326;-6.298;2022-11-03T04:08:56;99376.19;;;9.57;74.28
24422;BME280;12600;53.326;-6.298;2022-11-03T04:11:47;99373.31;;;9.53;74.56
24422;BME280;12600;53.326;-6.298;2022-11-03T04:14:54;99365.53;;;9.64;73.95
24422;BME280;12600;53.326;-6.298;2022-11-03T04:18:01;99371.56;;;9.69;73.71
24422;BME280;12600;53.326;-6.298;2022-11-03T04:21:11;99363.28;;;9.66;74.15
24422;BME280;12600;53.326;-6.298;2022-11-03T04:24:18;99366.47;;;9.68;73.84
24422;BME280;12600;53.326;-6.298;2022-11-03T04:27:26;99362.88;;;9.55;74.28
24422;BME280;12600;53.326;-6.298;2022-11-03T04:30:18;99363.88;;;9.50;74.54
24422;BME280;12600;53.326;-6.298;2022-11-03T04:33:13;99357.19;;;9.48;74.90
24422;BME280;12600;53.326;-6.298;2022-11-03T04:36:12;99359.69;;;9.53;75.00
24422;BME280;12600;53.326;-6.298;2022-11-03T04:39:16;99363.19;;;9.53;74.67
24422;BME280;12600;53.326;-6.298;2022-11-03T04:42:13;99367.06;;;9.52;74.73
24422;BME280;12600;53.326;-6.298;2022-11-03T04:45:18;99385.28;;;9.61;74.69
24422;BME280;12600;53.326;-6.298;2022-11-03T04:48:12;99375.72;;;9.55;74.75
24422;BME280;12600;53.326;-6.298;2022-11-03T04:51:13;99379.09;;;9.51;74.79
24422;BME280;12600;53.326;-6.298;2022-11-03T04:54:11;99388.75;;;9.49;74.68
24422;BME280;12600;53.326;-6.298;2022-11-03T04:57:08;99389.22;;;9.51;74.50
24422;BME280;12600;53.326;-6.298;2022-11-03T05:00:00;99371.41;;;9.33;74.84
24422;BME280;12600;53.326;-6.298;2022-11-03T05:02:50;99399.50;;;9.45;74.92
24422;BME280;12600;53.326;-6.298;2022-11-03T05:05:43;99395.88;;;9.41;74.61
24422;BME280;12600;53.326;-6.298;2022-11-03T05:08:33;99392.00;;;9.42;74.78
24422;BME280;12600;53.326;-6.298;2022-11-03T05:11:30;99390.22;;;9.46;74.59
24422;BME280;12600;53.326;-6.298;2022-11-03T05:14:23;99398.06;;;9.48;74.32
24422;BME280;12600;53.326;-6.298;2022-11-03T05:17:22;99395.19;;;9.44;74.59
24422;BME280;12600;53.326;-6.298;2022-11-03T05:20:28;99379.50;;;9.41;74.49
24422;BME280;12600;53.326;-6.298;2022-11-03T05:23:23;99386.69;;;9.46;74.23
24422;BME280;12600;53.326;-6.298;2022-11-03T05:26:18;99387.16;;;9.48;74.02
24422;BME280;12600;53.326;-6.298;2022-11-03T05:29:13;99385.88;;;9.45;74.35
24422;BME280;12600;53.326;-6.298;2022-11-03T05:32:10;99384.78;;;9.46;74.40
24422;BME280;12600;53.326;-6.298;2022-11-03T05:35:16;99381.22;;;9.46;74.14
24422;BME280;12600;53.326;-6.298;2022-11-03T05:38:11;99381.22;;;9.46;74.27
24422;BME280;12600;53.326;-6.298;2022-11-03T05:41:05;99380.31;;;9.42;74.14
24422;BME280;12600;53.326;-6.298;2022-11-03T05:44:12;99367.47;;;9.42;74.19
24422;BME280;12600;53.326;-6.298;2022-11-03T05:47:12;99371.00;;;9.43;74.00
24422;BME280;12600;53.326;-6.298;2022-11-03T05:50:17;99368.72;;;9.45;74.05
24422;BME280;12600;53.326;-6.298;2022-11-03T05:53:25;99374.84;;;9.42;74.28
24422;BME280;12600;53.326;-6.298;2022-11-03T05:56:18;99363.34;;;9.36;74.46
24422;BME280;12600;53.326;-6.298;2022-11-03T05:59:11;99356.31;;;9.35;74.29
24422;BME280;12600;53.326;-6.298;2022-11-03T06:02:03;99358.09;;;9.31;74.50
24422;BME280;12600;53.326;-6.298;2022-11-03T06:04:59;99345.91;;;9.29;74.01
24422;BME280;12600;53.326;-6.298;2022-11-03T06:07:54;99344.84;;;9.21;74.27
24422;BME280;12600;53.326;-6.298;2022-11-03T06:10:48;99336.41;;;9.14;74.34
24422;BME280;12600;53.326;-6.298;2022-11-03T06:13:38;99341.84;;;9.14;74.66
24422;BME280;12600;53.326;-6.298;2022-11-03T06:16:39;99332.63;;;9.06;75.00
24422;BME280;12600;53.326;-6.298;2022-11-03T06:19:34;99327.16;;;9.06;75.13
24422;BME280;12600;53.326;-6.298;2022-11-03T06:22:28;99338.41;;;9.05;74.93
24422;BME280;12600;53.326;-6.298;2022-11-03T06:25:27;99329.44;;;9.04;75.35
24422;BME280;12600;53.326;-6.298;2022-11-03T06:28:21;99326.69;;;9.04;75.29
24422;BME280;12600;53.326;-6.298;2022-11-03T06:31:20;99329.78;;;9.03;75.57
24422;BME280;12600;53.326;-6.298;2022-11-03T06:34:31;99318.53;;;9.04;75.04
24422;BME280;12600;53.326;-6.298;2022-11-03T06:37:24;99326.78;;;9.16;74.39
24422;BME280;12600;53.326;-6.298;2022-11-03T06:40:33;99331.22;;;9.21;74.04
24422;BME280;12600;53.326;-6.298;2022-11-03T06:43:26;99321.91;;;9.22;73.93
24422;BME280;12600;53.326;-6.298;2022-11-03T06:46:22;99327.38;;;9.22;73.05
24422;BME280;12600;53.326;-6.298;2022-11-03T06:49:26;99328.13;;;9.31;73.39
24422;BME280;12600;53.326;-6.298;2022-11-03T06:52:26;99333.69;;;9.35;73.58
24422;BME280;12600;53.326;-6.298;2022-11-03T06:55:24;99331.50;;;9.28;73.28
24422;BME280;12600;53.326;-6.298;2022-11-03T06:58:27;99343.34;;;9.32;73.46
24422;BME280;12600;53.326;-6.298;2022-11-03T07:01:20;99334.03;;;9.33;72.97
24422;BME280;12600;53.326;-6.298;2022-11-03T07:04:16;99326.06;;;9.28;73.00
24422;BME280;12600;53.326;-6.298;2022-11-03T07:07:07;99331.16;;;9.30;73.13
24422;BME280;12600;53.326;-6.298;2022-11-03T07:09:57;99323.19;;;9.24;73.42
24422;BME280;12600;53.326;-6.298;2022-11-03T07:12:46;99318.09;;;9.23;73.30
24422;BME280;12600;53.326;-6.298;2022-11-03T07:15:37;99314.34;;;9.28;73.40
24422;BME280;12600;53.326;-6.298;2022-11-03T07:18:30;99326.91;;;9.20;73.52
24422;BME280;12600;53.326;-6.298;2022-11-03T07:21:33;99308.78;;;9.24;73.74
24422;BME280;12600;53.326;-6.298;2022-11-03T07:24:27;99305.44;;;9.18;73.69
24422;BME280;12600;53.326;-6.298;2022-11-03T07:27:22;99305.34;;;9.15;74.23
24422;BME280;12600;53.326;-6.298;2022-11-03T07:30:19;99301.13;;;9.17;74.13
24422;BME280;12600;53.326;-6.298;2022-11-03T07:33:15;99297.16;;;9.15;74.25
24422;BME280;12600;53.326;-6.298;2022-11-03T07:36:11;99294.44;;;9.15;74.22
24422;BME280;12600;53.326;-6.298;2022-11-03T07:39:08;99301.25;;;9.21;74.33
24422;BME280;12600;53.326;-6.298;2022-11-03T07:42:02;99293.88;;;9.21;74.24
24422;BME280;12600;53.326;-6.298;2022-11-03T07:44:59;99293.22;;;9.24;73.87
24422;BME280;12600;53.326;-6.298;2022-11-03T07:47:49;99286.19;;;9.23;73.87
24422;BME280;12600;53.326;-6.298;2022-11-03T07:50:39;99287.56;;;9.30;73.72
24422;BME280;12600;53.326;-6.298;2022-11-03T07:53:35;99277.13;;;9.32;74.03
24422;BME280;12600;53.326;-6.298;2022-11-03T07:56:33;99280.16;;;9.30;73.92
24422;BME280;12600;53.326;-6.298;2022-11-03T07:59:28;99286.91;;;9.33;73.91
24422;BME280;12600;53.326;-6.298;2022-11-03T08:02:29;99280.84;;;9.27;74.25
24422;BME280;12600;53.326;-6.298;2022-11-03T08:05:19;99285.88;;;9.37;73.88
24422;BME280;12600;53.326;-6.298;2022-11-03T08:08:10;99298.59;;;9.33;74.04
24422;BME280;12600;53.326;-6.298;2022-11-03T08:11:00;99293.94;;;9.34;74.37
24422;BME280;12600;53.326;-6.298;2022-11-03T08:13:51;99293.59;;;9.35;74.48
24422;BME280;12600;53.326;-6.298;2022-11-03T08:16:40;99296.13;;;9.40;74.03
24422;BME280;12600;53.326;-6.298;2022-11-03T08:19:30;99288.41;;;9.42;74.29
24422;BME280;12600;53.326;-6.298;2022-11-03T08:22:19;99289.09;;;9.39;74.21
24422;BME280;12600;53.326;-6.298;2022-11-03T08:25:11;99281.03;;;9.43;74.21
24422;BME280;12600;53.326;-6.298;2022-11-03T08:28:01;99280.94;;;9.51;74.04
24422;BME280;12600;53.326;-6.298;2022-11-03T08:30:51;99273.91;;;9.50;73.67
24422;BME280;12600;53.326;-6.298;2022-11-03T08:33:41;99269.41;;;9.55;73.72
24422;BME280;12600;53.326;-6.298;2022-11-03T08:36:30;99269.75;;;9.65;73.50
24422;BME280;12600;53.326;-6.298;2022-11-03T08:39:20;99273.06;;;9.71;73.42
24422;BME280;12600;53.326;-6.298;2022-11-03T08:42:11;99265.34;;;9.73;73.33
24422;BME280;12600;53.326;-6.298;2022-11-03T08:45:00;99259.75;;;9.69;73.66
24422;BME280;12600;53.326;-6.298;2022-11-03T08:47:50;99266.81;;;9.70;73.34
24422;BME280;12600;53.326;-6.298;2022-11-03T08:50:39;99254.44;;;9.85;73.20
24422;BME280;12600;53.326;-6.298;2022-11-03T08:53:28;99258.44;;;9.88;72.93
24422;BME280;12600;53.326;-6.298;2022-11-03T08:56:18;99267.78;;;9.99;73.00
24422;BME280;12600;53.326;-6.298;2022-11-03T08:59:11;99256.19;;;10.02;72.85
24422;BME280;12600;53.326;-6.298;2022-11-03T09:02:00;99261.44;;;10.07;72.58
24422;BME280;12600;53.326;-6.298;2022-11-03T09:04:50;99256.91;;;10.11;72.58
24422;BME280;12600;53.326;-6.298;2022-11-03T09:07:40;99263.94;;;10.12;72.67
24422;BME280;12600;53.326;-6.298;2022-11-03T09:10:49;99262.50;;;10.27;72.73
24422;BME280;12600;53.326;-6.298;2022-11-03T09:13:39;99263.31;;;10.27;72.94
24422;BME280;12600;53.326;-6.298;2022-11-03T09:16:30;99263.97;;;10.36;72.47
24422;BME280;12600;53.326;-6.298;2022-11-03T09:19:19;99260.47;;;10.36;72.28
24422;BME280;12600;53.326;-6.298;2022-11-03T09:22:09;99253.28;;;10.44;71.98
24422;BME280;12600;53.326;-6.298;2022-11-03T09:24:58;99244.50;;;10.50;72.22
24422;BME280;12600;53.326;-6.298;2022-11-03T09:27:47;99246.22;;;10.55;71.94
24422;BME280;12600;53.326;-6.298;2022-11-03T09:30:37;99247.31;;;10.66;72.54
24422;BME280;12600;53.326;-6.298;2022-11-03T09:33:28;99238.47;;;10.69;72.25
24422;BME280;12600;53.326;-6.298;2022-11-03T09:36:18;99235.81;;;10.73;72.11
24422;BME280;12600;53.326;-6.298;2022-11-03T09:39:08;99222.88;;;10.70;71.88
24422;BME280;12600;53.326;-6.298;2022-11-03T09:41:58;99242.22;;;10.77;72.12
24422;BME280;12600;53.326;-6.298;2022-11-03T09:44:51;99244.69;;;10.82;72.26
24422;BME280;12600;53.326;-6.298;2022-11-03T09:47:45;99239.78;;;10.87;72.24
24422;BME280;12600;53.326;-6.298;2022-11-03T09:50:36;99238.41;;;10.93;71.98
24422;BME280;12600;53.326;-6.298;2022-11-03T09:53:25;99243.59;;;10.99;71.77
24422;BME280;12600;53.326;-6.298;2022-11-03T09:56:18;99231.09;;;10.98;71.34
24422;BME280;12600;53.326;-6.298;2022-11-03T09:59:15;99236.97;;;11.12;71.85
24422;BME280;12600;53.326;-6.298;2022-11-03T10:02:21;99236.97;;;11.12;70.63
24422;BME280;12600;53.326;-6.298;2022-11-03T10:05:19;99243.22;;;11.25;70.85
24422;BME280;12600;53.326;-6.298;2022-11-03T10:08:19;99238.81;;;11.36;71.00
24422;BME280;12600;53.326;-6.298;2022-11-03T10:11:10;99242.00;;;11.38;70.67
24422;BME280;12600;53.326;-6.298;2022-11-03T10:14:00;99248.81;;;11.44;71.25
24422;BME280;12600;53.326;-6.298;2022-11-03T10:16:56;99254.38;;;11.47;70.77
24422;BME280;12600;53.326;-6.298;2022-11-03T10:19:50;99258.44;;;11.54;70.58
24422;BME280;12600;53.326;-6.298;2022-11-03T10:22:43;99257.06;;;11.60;71.23
24422;BME280;12600;53.326;-6.298;2022-11-03T10:25:39;99252.38;;;11.60;69.92
24422;BME280;12600;53.326;-6.298;2022-11-03T10:28:29;99249.13;;;11.70;70.34
24422;BME280;12600;53.326;-6.298;2022-11-03T10:31:19;99255.38;;;11.71;69.38
24422;BME280;12600;53.326;-6.298;2022-11-03T10:34:26;99247.03;;;11.80;67.57
24422;BME280;12600;53.326;-6.298;2022-11-03T10:37:18;99241.16;;;11.93;68.14
24422;BME280;12600;53.326;-6.298;2022-11-03T10:40:36;99233.53;;;12.02;67.87
24422;BME280;12600;53.326;-6.298;2022-11-03T10:43:42;99235.66;;;12.09;67.96
24422;BME280;12600;53.326;-6.298;2022-11-03T10:46:32;99234.34;;;12.19;67.71
24422;BME280;12600;53.326;-6.298;2022-11-03T10:49:38;99233.03;;;12.28;67.75
24422;BME280;12600;53.326;-6.298;2022-11-03T10:52:30;99239.97;;;12.42;66.92
24422;BME280;12600;53.326;-6.298;2022-11-03T10:55:25;99229.84;;;12.97;67.94
24422;BME280;12600;53.326;-6.298;2022-11-03T10:58:17;99227.13;;;14.00;67.17
24422;BME280;12600;53.326;-6.298;2022-11-03T11:01:09;99216.16;;;15.06;62.67
24422;BME280;12600;53.326;-6.298;2022-11-03T11:03:59;99213.78;;;16.20;63.63
24422;BME280;12600;53.326;-6.298;2022-11-03T11:06:49;99208.50;;;17.18;60.90
24422;BME280;12600;53.326;-6.298;2022-11-03T11:09:39;99193.69;;;18.11;59.57
24422;BME280;12600;53.326;-6.298;2022-11-03T11:12:29;99189.19;;;18.99;58.32
24422;BME280;12600;53.326;-6.298;2022-11-03T11:15:41;99194.59;;;19.94;56.68
24422;BME280;12600;53.326;-6.298;2022-11-03T11:19:08;99186.75;;;20.75;50.28
24422;BME280;12600;53.326;-6.298;2022-11-03T11:22:01;99192.88;;;21.28;48.94
24422;BME280;12600;53.326;-6.298;2022-11-03T11:24:59;99194.38;;;21.63;43.58
24422;BME280;12600;53.326;-6.298;2022-11-03T11:28:12;99198.88;;;22.07;42.76
24422;BME280;12600;53.326;-6.298;2022-11-03T11:31:29;99196.13;;;22.30;42.93
24422;BME280;12600;53.326;-6.298;2022-11-03T11:34:38;99200.53;;;22.28;38.44
24422;BME280;12600;53.326;-6.298;2022-11-03T11:37:36;99193.16;;;22.41;41.01
24422;BME280;12600;53.326;-6.298;2022-11-03T11:40:49;99185.03;;;22.27;38.57
24422;BME280;12600;53.326;-6.298;2022-11-03T11:43:38;99186.94;;;22.10;39.82
24422;BME280;12600;53.326;-6.298;2022-11-03T11:46:48;99185.41;;;21.78;37.51
24422;BME280;12600;53.326;-6.298;2022-11-03T11:49:38;99177.28;;;21.64;36.78
24422;BME280;12600;53.326;-6.298;2022-11-03T11:52:28;99185.72;;;21.30;36.95
24422;BME280;12600;53.326;-6.298;2022-11-03T11:55:24;99174.88;;;21.05;37.85
24422;BME280;12600;53.326;-6.298;2022-11-03T11:58:24;99182.09;;;20.65;37.47
24422;BME280;12600;53.326;-6.298;2022-11-03T12:01:25;99165.31;;;20.38;39.17
24422;BME280;12600;53.326;-6.298;2022-11-03T12:04:21;99156.94;;;19.97;41.26
24422;BME280;12600;53.326;-6.298;2022-11-03T12:07:13;99151.38;;;19.45;42.15
24422;BME280;12600;53.326;-6.298;2022-11-03T12:10:07;99150.94;;;18.73;43.41
24422;BME280;12600;53.326;-6.298;2022-11-03T12:12:58;99153.41;;;18.21;45.10
24422;BME280;12600;53.326;-6.298;2022-11-03T12:15:53;99152.63;;;17.71;46.39
24422;BME280;12600;53.326;-6.298;2022-11-03T12:18:43;99153.31;;;17.25;47.74
24422;BME280;12600;53.326;-6.298;2022-11-03T12:21:47;99145.22;;;16.73;48.67
24422;BME280;12600;53.326;-6.298;2022-11-03T12:24:51;99154.38;;;16.26;50.51
24422;BME280;12600;53.326;-6.298;2022-11-03T12:27:42;99151.34;;;15.87;51.26
24422;BME280;12600;53.326;-6.298;2022-11-03T12:30:31;99153.09;;;15.61;52.70
24422;BME280;12600;53.326;-6.298;2022-11-03T12:33:27;99152.81;;;15.36;53.21
24422;BME280;12600;53.326;-6.298;2022-11-03T12:36:17;99140.34;;;15.09;53.87
24422;BME280;12600;53.326;-6.298;2022-11-03T12:39:07;99140.88;;;14.88;54.63
24422;BME280;12600;53.326;-6.298;2022-11-03T12:41:57;99141.88;;;14.73;54.96
24422;BME280;12600;53.326;-6.298;2022-11-03T12:44:46;99139.78;;;14.63;56.00
24422;BME280;12600;53.326;-6.298;2022-11-03T12:47:36;99136.53;;;14.53;56.46
24422;BME280;12600;53.326;-6.298;2022-11-03T12:50:25;99131.34;;;14.48;56.73
24422;BME280;12600;53.326;-6.298;2022-11-03T12:53:15;99127.31;;;14.42;56.91
24422;BME280;12600;53.326;-6.298;2022-11-03T12:56:08;99122.16;;;14.37;57.41
24422;BME280;12600;53.326;-6.298;2022-11-03T12:58:57;99128.81;;;14.36;57.88
24422;BME280;12600;53.326;-6.298;2022-11-03T13:01:46;99123.63;;;14.31;57.92
24422;BME280;12600;53.326;-6.298;2022-11-03T13:04:36;99110.47;;;14.17;58.29
24422;BME280;12600;53.326;-6.298;2022-11-03T13:07:26;99124.69;;;14.23;58.64
24422;BME280;12600;53.326;-6.298;2022-11-03T13:10:21;99118.78;;;14.21;58.87
24422;BME280;12600;53.326;-6.298;2022-11-03T13:13:12;99119.25;;;14.26;59.39
24422;BME280;12600;53.326;-6.298;2022-11-03T13:16:02;99112.22;;;14.29;59.91
24422;BME280;12600;53.326;-6.298;2022-11-03T13:18:51;99111.16;;;14.37;59.55
24422;BME280;12600;53.326;-6.298;2022-11-03T13:21:41;99109.06;;;14.53;59.67
24422;BME280;12600;53.326;-6.298;2022-11-03T13:24:30;99111.53;;;14.66;59.69
24422;BME280;12600;53.326;-6.298;2022-11-03T13:27:20;99113.66;;;14.76;59.68
24422;BME280;12600;53.326;-6.298;2022-11-03T13:30:12;99110.97;;;14.83;59.73
24422;BME280;12600;53.326;-6.298;2022-11-03T13:33:01;99107.34;;;14.75;59.20
24422;BME280;12600;53.326;-6.298;2022-11-03T13:35:52;99101.34;;;14.66;58.73
24422;BME280;12600;53.326;-6.298;2022-11-03T13:38:41;99101.72;;;14.65;58.89
24422;BME280;12600;53.326;-6.298;2022-11-03T13:41:31;99099.28;;;14.60;59.27
24422;BME280;12600;53.326;-6.298;2022-11-03T13:44:20;99111.09;;;14.60;59.07
24422;BME280;12600;53.326;-6.298;2022-11-03T13:47:11;99093.28;;;14.50;59.18
24422;BME280;12600;53.326;-6.298;2022-11-03T13:50:00;99105.31;;;14.42;59.07
24422;BME280;12600;53.326;-6.298;2022-11-03T13:53:06;99093.88;;;14.37;59.55
24422;BME280;12600;53.326;-6.298;2022-11-03T13:56:15;99096.47;;;14.26;59.89
24422;BME280;12600;53.326;-6.298;2022-11-03T13:59:09;99093.63;;;14.19;60.20
24422;BME280;12600;53.326;-6.298;2022-11-03T14:02:16;99094.00;;;14.17;60.29
24422;BME280;12600;53.326;-6.298;2022-11-03T14:05:26;99089.97;;;14.11;60.75
24422;BME280;12600;53.326;-6.298;2022-11-03T14:08:15;99091.88;;;14.04;61.04
24422;BME280;12600;53.326;-6.298;2022-11-03T14:11:05;99095.31;;;14.00;60.75
24422;BME280;12600;53.326;-6.298;2022-11-03T14:14:07;99090.47;;;13.90;60.75
24422;BME280;12600;53.326;-6.298;2022-11-03T14:16:57;99095.56;;;13.88;61.07
24422;BME280;12600;53.326;-6.298;2022-11-03T14:19:48;99090.00;;;13.85;61.26
24422;BME280;12600;53.326;-6.298;2022-11-03T14:22:40;99084.88;;;13.83;61.74
24422;BME280;12600;53.326;-6.298;2022-11-03T14:25:30;99072.19;;;13.75;61.41
24422;BME280;12600;53.326;-6.298;2022-11-03T14:28:19;99085.97;;;13.79;61.62
24422;BME280;12600;53.326;-6.298;2022-11-03T14:31:13;99080.44;;;13.75;62.21
24422;BME280;12600;53.326;-6.298;2022-11-03T14:34:02;99083.56;;;13.74;62.05
24422;BME280;12600;53.326;-6.298;2022-11-03T14:36:53;99072.09;;;13.68;62.21
24422;BME280;12600;53.326;-6.298;2022-11-03T14:39:43;99064.72;;;13.72;62.05
24422;BME280;12600;53.326;-6.298;2022-11-03T14:42:32;99065.06;;;13.70;62.31
24422;BME280;12600;53.326;-6.298;2022-11-03T14:45:21;99048.84;;;13.62;61.64
24422;BME280;12600;53.326;-6.298;2022-11-03T14:48:11;99057.63;;;13.71;61.79
24422;BME280;12600;53.326;-6.298;2022-11-03T14:51:00;99052.88;;;13.68;62.30
24422;BME280;12600;53.326;-6.298;2022-11-03T14:53:51;99052.94;;;13.71;62.21
24422;BME280;12600;53.326;-6.298;2022-11-03T14:56:40;99061.97;;;13.72;62.71
24422;BME280;12600;53.326;-6.298;2022-11-03T14:59:30;99053.28;;;13.70;62.50
24422;BME280;12600;53.326;-6.298;2022-11-03T15:02:20;99054.09;;;13.70;62.94
24422;BME280;12600;53.326;-6.298;2022-11-03T15:05:09;99067.75;;;13.67;62.77
24422;BME280;12600;53.326;-6.298;2022-11-03T15:08:20;99061.88;;;13.65;63.25
24422;BME280;12600;53.326;-6.298;2022-11-03T15:11:11;99075.09;;;13.59;63.23
24422;BME280;12600;53.326;-6.298;2022-11-03T15:14:01;99072.31;;;13.56;63.48
24422;BME280;12600;53.326;-6.298;2022-11-03T15:16:51;99075.06;;;13.56;63.59